sensor_id;sensor_type;location;lat;lon;timestamp;P1;durP1;ratioP1;P2;durP2;ratioP2
42616;SDS011;28250;52.320;0.360;2023-09-19T00:00:43;5.00;;;1.10;;
42616;SDS011;28250;52.320;0.360;2023-09-19T00:03:09;8.45;;;1.40;;
42616;SDS011;28250;52.320;0.360;2023-09-19T00:05:37;12.63;;;1.73;;
42616;SDS011;28250;52.320;0.360;2023-09-19T00:10:31;3.83;;;1.00;;
42616;SDS011;28250;52.320;0.360;2023-09-19T00:13:01;5.10;;;0.90;;
42616;SDS011;28250;52.320;0.360;2023-09-19T00:15:35;3.20;;;0.88;;
42616;SDS011;28250;52.320;0.360;2023-09-19T00:18:03;5.95;;;1.45;;
42616;SDS011;28250;52.320;0.360;2023-09-19T00:20:31;9.80;;;2.40;;
42616;SDS011;28250;52.320;0.360;2023-09-19T00:23:00;8.57;;;1.50;;
42616;SDS011;28250;52.320;0.360;2023-09-19T00:25:34;3.95;;;0.93;;
42616;SDS011;28250;52.320;0.360;2023-09-19T00:28:03;8.02;;;1.38;;
42616;SDS011;28250;52.320;0.360;2023-09-19T00:30:33;6.47;;;1.13;;
42616;SDS011;28250;52.320;0.360;2023-09-19T00:33:00;9.73;;;1.38;;
42616;SDS011;28250;52.320;0.360;2023-09-19T00:35:31;3.42;;;1.00;;
42616;SDS011;28250;52.320;0.360;2023-09-19T00:37:57;3.28;;;0.93;;
42616;SDS011;28250;52.320;0.360;2023-09-19T00:40:23;4.20;;;1.10;;
42616;SDS011;28250;52.320;0.360;2023-09-19T00:42:49;4.80;;;0.93;;
42616;SDS011;28250;52.320;0.360;2023-09-19T00:45:16;7.38;;;0.98;;
42616;SDS011;28250;52.320;0.360;2023-09-19T00:47:49;8.07;;;1.35;;
42616;SDS011;28250;52.320;0.360;2023-09-19T00:50:21;2.70;;;0.80;;
42616;SDS011;28250;52.320;0.360;2023-09-19T00:52:53;5.22;;;1.27;;
42616;SDS011;28250;52.320;0.360;2023-09-19T00:55:23;2.55;;;1.00;;
42616;SDS011;28250;52.320;0.360;2023-09-19T00:57:50;6.00;;;0.90;;
42616;SDS011;28250;52.320;0.360;2023-09-19T01:00:18;3.78;;;0.85;;
42616;SDS011;28250;52.320;0.360;2023-09-19T01:02:46;2.35;;;0.70;;
42616;SDS011;28250;52.320;0.360;2023-09-19T01:05:13;7.28;;;1.55;;
42616;SDS011;28250;52.320;0.360;2023-09-19T01:07:39;4.35;;;0.85;;
42616;SDS011;28250;52.320;0.360;2023-09-19T01:10:07;3.55;;;0.75;;
42616;SDS011;28250;52.320;0.360;2023-09-19T01:12:42;5.53;;;1.73;;
42616;SDS011;28250;52.320;0.360;2023-09-19T01:15:51;5.28;;;1.05;;
42616;SDS011;28250;52.320;0.360;2023-09-19T01:18:49;5.57;;;1.20;;
42616;SDS011;28250;52.320;0.360;2023-09-19T01:21:43;5.90;;;1.10;;
42616;SDS011;28250;52.320;0.360;2023-09-19T01:30:17;4.20;;;1.02;;
42616;SDS011;28250;52.320;0.360;2023-09-19T01:32:53;6.43;;;1.17;;
42616;SDS011;28250;52.320;0.360;2023-09-19T01:35:19;3.95;;;0.90;;
42616;SDS011;28250;52.320;0.360;2023-09-19T01:37:45;5.72;;;1.02;;
42616;SDS011;28250;52.320;0.360;2023-09-19T01:40:15;5.55;;;0.88;;
42616;SDS011;28250;52.320;0.360;2023-09-19T01:42:50;5.10;;;1.20;;
42616;SDS011;28250;52.320;0.360;2023-09-19T01:48:38;2.30;;;0.70;;
42616;SDS011;28250;52.320;0.360;2023-09-19T01:54:12;4.53;;;1.08;;
42616;SDS011;28250;52.320;0.360;2023-09-19T01:56:44;6.28;;;1.08;;
42616;SDS011;28250;52.320;0.360;2023-09-19T01:59:16;4.55;;;0.90;;
42616;SDS011;28250;52.320;0.360;2023-09-19T02:01:51;5.70;;;0.88;;
42616;SDS011;28250;52.320;0.360;2023-09-19T02:04:18;5.82;;;1.20;;
42616;SDS011;28250;52.320;0.360;2023-09-19T02:06:45;4.50;;;1.52;;
42616;SDS011;28250;52.320;0.360;2023-09-19T02:09:13;3.78;;;1.25;;
42616;SDS011;28250;52.320;0.360;2023-09-19T02:11:40;4.90;;;1.42;;
42616;SDS011;28250;52.320;0.360;2023-09-19T02:14:07;8.80;;;1.30;;
42616;SDS011;28250;52.320;0.360;2023-09-19T02:16:34;5.55;;;1.20;;
42616;SDS011;28250;52.320;0.360;2023-09-19T02:19:01;4.57;;;1.10;;
42616;SDS011;28250;52.320;0.360;2023-09-19T02:21:31;6.15;;;1.77;;
42616;SDS011;28250;52.320;0.360;2023-09-19T02:23:57;7.28;;;1.30;;
42616;SDS011;28250;52.320;0.360;2023-09-19T02:26:24;7.88;;;1.30;;
42616;SDS011;28250;52.320;0.360;2023-09-19T02:28:50;7.85;;;1.20;;
42616;SDS011;28250;52.320;0.360;2023-09-19T02:33:43;5.88;;;1.52;;
42616;SDS011;28250;52.320;0.360;2023-09-19T02:36:11;9.57;;;1.60;;
42616;SDS011;28250;52.320;0.360;2023-09-19T02:38:42;5.43;;;1.58;;
42616;SDS011;28250;52.320;0.360;2023-09-19T02:41:08;5.55;;;1.17;;
42616;SDS011;28250;52.320;0.360;2023-09-19T02:43:36;4.88;;;1.13;;
42616;SDS011;28250;52.320;0.360;2023-09-19T02:46:02;7.38;;;1.52;;
42616;SDS011;28250;52.320;0.360;2023-09-19T02:48:29;5.82;;;1.42;;
42616;SDS011;28250;52.320;0.360;2023-09-19T02:50:58;10.90;;;1.20;;
42616;SDS011;28250;52.320;0.360;2023-09-19T02:53:24;4.38;;;1.30;;
42616;SDS011;28250;52.320;0.360;2023-09-19T02:55:50;5.28;;;1.40;;
42616;SDS011;28250;52.320;0.360;2023-09-19T02:58:18;9.55;;;1.33;;
42616;SDS011;28250;52.320;0.360;2023-09-19T03:00:44;8.23;;;1.60;;
42616;SDS011;28250;52.320;0.360;2023-09-19T03:03:16;5.60;;;1.15;;
42616;SDS011;28250;52.320;0.360;2023-09-19T03:05:43;9.32;;;1.77;;
42616;SDS011;28250;52.320;0.360;2023-09-19T03:08:15;10.20;;;2.22;;
42616;SDS011;28250;52.320;0.360;2023-09-19T03:10:42;14.43;;;1.98;;
42616;SDS011;28250;52.320;0.360;2023-09-19T03:13:11;11.88;;;1.48;;
42616;SDS011;28250;52.320;0.360;2023-09-19T03:15:42;13.73;;;1.75;;
42616;SDS011;28250;52.320;0.360;2023-09-19T03:18:13;12.55;;;2.08;;
42616;SDS011;28250;52.320;0.360;2023-09-19T03:20:39;8.32;;;1.42;;
42616;SDS011;28250;52.320;0.360;2023-09-19T03:23:05;9.80;;;2.08;;
42616;SDS011;28250;52.320;0.360;2023-09-19T03:25:33;12.63;;;1.65;;
42616;SDS011;28250;52.320;0.360;2023-09-19T03:28:02;6.72;;;1.90;;
42616;SDS011;28250;52.320;0.360;2023-09-19T03:30:31;10.40;;;1.60;;
42616;SDS011;28250;52.320;0.360;2023-09-19T03:33:00;9.20;;;1.52;;
42616;SDS011;28250;52.320;0.360;2023-09-19T03:35:26;9.73;;;1.90;;
42616;SDS011;28250;52.320;0.360;2023-09-19T03:37:52;7.20;;;1.65;;
42616;SDS011;28250;52.320;0.360;2023-09-19T03:40:18;10.98;;;2.35;;
42616;SDS011;28250;52.320;0.360;2023-09-19T03:42:47;6.40;;;1.70;;
42616;SDS011;28250;52.320;0.360;2023-09-19T03:45:13;14.57;;;2.23;;
42616;SDS011;28250;52.320;0.360;2023-09-19T03:47:46;13.52;;;1.40;;
42616;SDS011;28250;52.320;0.360;2023-09-19T03:50:14;12.05;;;2.00;;
42616;SDS011;28250;52.320;0.360;2023-09-19T03:52:45;5.40;;;1.33;;
42616;SDS011;28250;52.320;0.360;2023-09-19T03:55:12;7.13;;;1.48;;
42616;SDS011;28250;52.320;0.360;2023-09-19T04:00:05;8.57;;;1.40;;
42616;SDS011;28250;52.320;0.360;2023-09-19T04:02:40;12.63;;;1.70;;
42616;SDS011;28250;52.320;0.360;2023-09-19T04:05:06;8.85;;;2.20;;
42616;SDS011;28250;52.320;0.360;2023-09-19T04:07:34;12.68;;;1.92;;
42616;SDS011;28250;52.320;0.360;2023-09-19T04:10:00;8.55;;;1.80;;
42616;SDS011;28250;52.320;0.360;2023-09-19T04:12:29;9.73;;;1.77;;
42616;SDS011;28250;52.320;0.360;2023-09-19T04:14:55;10.85;;;2.10;;
42616;SDS011;28250;52.320;0.360;2023-09-19T04:17:21;12.18;;;1.58;;
42616;SDS011;28250;52.320;0.360;2023-09-19T04:19:48;15.52;;;2.15;;
42616;SDS011;28250;52.320;0.360;2023-09-19T04:22:14;15.10;;;2.10;;
42616;SDS011;28250;52.320;0.360;2023-09-19T04:24:40;8.18;;;1.90;;
42616;SDS011;28250;52.320;0.360;2023-09-19T04:27:06;13.27;;;2.03;;
42616;SDS011;28250;52.320;0.360;2023-09-19T04:29:33;20.90;;;2.15;;
42616;SDS011;28250;52.320;0.360;2023-09-19T04:32:00;17.00;;;2.28;;
42616;SDS011;28250;52.320;0.360;2023-09-19T04:34:26;11.85;;;2.05;;
42616;SDS011;28250;52.320;0.360;2023-09-19T04:36:52;11.23;;;2.10;;
42616;SDS011;28250;52.320;0.360;2023-09-19T04:39:18;10.27;;;1.95;;
42616;SDS011;28250;52.320;0.360;2023-09-19T04:41:44;9.43;;;1.88;;
42616;SDS011;28250;52.320;0.360;2023-09-19T04:44:13;11.82;;;1.58;;
42616;SDS011;28250;52.320;0.360;2023-09-19T04:46:39;11.48;;;1.90;;
42616;SDS011;28250;52.320;0.360;2023-09-19T04:49:05;8.93;;;1.80;;
42616;SDS011;28250;52.320;0.360;2023-09-19T04:51:31;12.18;;;1.85;;
42616;SDS011;28250;52.320;0.360;2023-09-19T04:54:00;10.18;;;1.55;;
42616;SDS011;28250;52.320;0.360;2023-09-19T04:56:26;12.60;;;1.53;;
42616;SDS011;28250;52.320;0.360;2023-09-19T04:58:53;11.55;;;1.95;;
42616;SDS011;28250;52.320;0.360;2023-09-19T05:01:20;6.93;;;1.52;;
42616;SDS011;28250;52.320;0.360;2023-09-19T05:03:48;12.93;;;2.15;;
42616;SDS011;28250;52.320;0.360;2023-09-19T05:06:21;11.10;;;1.70;;
42616;SDS011;28250;52.320;0.360;2023-09-19T05:08:48;8.65;;;2.55;;
42616;SDS011;28250;52.320;0.360;2023-09-19T05:11:18;11.27;;;1.70;;
42616;SDS011;28250;52.320;0.360;2023-09-19T05:13:47;12.95;;;2.25;;
42616;SDS011;28250;52.320;0.360;2023-09-19T05:16:15;15.32;;;2.35;;
42616;SDS011;28250;52.320;0.360;2023-09-19T05:18:42;10.48;;;1.70;;
42616;SDS011;28250;52.320;0.360;2023-09-19T05:21:08;19.23;;;4.07;;
42616;SDS011;28250;52.320;0.360;2023-09-19T05:23:34;7.57;;;1.67;;
42616;SDS011;28250;52.320;0.360;2023-09-19T05:26:00;10.55;;;1.95;;
42616;SDS011;28250;52.320;0.360;2023-09-19T05:28:26;10.57;;;1.63;;
42616;SDS011;28250;52.320;0.360;2023-09-19T05:30:52;9.55;;;2.03;;
42616;SDS011;28250;52.320;0.360;2023-09-19T05:33:19;8.48;;;1.92;;
42616;SDS011;28250;52.320;0.360;2023-09-19T05:35:45;13.30;;;1.90;;
42616;SDS011;28250;52.320;0.360;2023-09-19T05:38:13;4.28;;;1.42;;
42616;SDS011;28250;52.320;0.360;2023-09-19T05:40:41;12.68;;;1.90;;
42616;SDS011;28250;52.320;0.360;2023-09-19T05:43:08;9.70;;;1.70;;
42616;SDS011;28250;52.320;0.360;2023-09-19T05:45:34;7.63;;;1.92;;
42616;SDS011;28250;52.320;0.360;2023-09-19T05:48:08;8.32;;;2.05;;
42616;SDS011;28250;52.320;0.360;2023-09-19T05:50:39;7.72;;;1.73;;
42616;SDS011;28250;52.320;0.360;2023-09-19T05:53:05;8.07;;;1.20;;
42616;SDS011;28250;52.320;0.360;2023-09-19T05:55:32;13.45;;;1.70;;
42616;SDS011;28250;52.320;0.360;2023-09-19T05:57:58;8.73;;;1.58;;
42616;SDS011;28250;52.320;0.360;2023-09-19T06:00:25;14.55;;;2.42;;
42616;SDS011;28250;52.320;0.360;2023-09-19T06:02:53;5.95;;;1.35;;
42616;SDS011;28250;52.320;0.360;2023-09-19T06:05:21;9.18;;;1.25;;
42616;SDS011;28250;52.320;0.360;2023-09-19T06:07:47;9.47;;;1.20;;
42616;SDS011;28250;52.320;0.360;2023-09-19T06:10:14;8.85;;;1.45;;
42616;SDS011;28250;52.320;0.360;2023-09-19T06:12:41;13.50;;;1.60;;
42616;SDS011;28250;52.320;0.360;2023-09-19T06:15:11;14.27;;;1.73;;
42616;SDS011;28250;52.320;0.360;2023-09-19T06:17:42;9.70;;;1.55;;
42616;SDS011;28250;52.320;0.360;2023-09-19T06:20:12;8.30;;;1.73;;
42616;SDS011;28250;52.320;0.360;2023-09-19T06:22:38;10.95;;;1.73;;
42616;SDS011;28250;52.320;0.360;2023-09-19T06:25:07;11.85;;;1.55;;
42616;SDS011;28250;52.320;0.360;2023-09-19T06:27:37;3.60;;;0.90;;
42616;SDS011;28250;52.320;0.360;2023-09-19T06:30:06;10.25;;;2.05;;
42616;SDS011;28250;52.320;0.360;2023-09-19T06:32:34;7.28;;;1.38;;
42616;SDS011;28250;52.320;0.360;2023-09-19T06:35:01;13.23;;;1.80;;
42616;SDS011;28250;52.320;0.360;2023-09-19T06:37:28;5.90;;;1.60;;
42616;SDS011;28250;52.320;0.360;2023-09-19T06:39:55;15.43;;;2.13;;
42616;SDS011;28250;52.320;0.360;2023-09-19T06:42:22;6.53;;;1.40;;
42616;SDS011;28250;52.320;0.360;2023-09-19T06:44:49;8.93;;;1.42;;
42616;SDS011;28250;52.320;0.360;2023-09-19T06:47:15;9.15;;;1.25;;
42616;SDS011;28250;52.320;0.360;2023-09-19T06:49:41;9.05;;;1.23;;
42616;SDS011;28250;52.320;0.360;2023-09-19T06:52:10;7.13;;;1.05;;
42616;SDS011;28250;52.320;0.360;2023-09-19T06:54:36;10.60;;;1.05;;
42616;SDS011;28250;52.320;0.360;2023-09-19T06:57:02;6.75;;;1.08;;
42616;SDS011;28250;52.320;0.360;2023-09-19T06:59:29;8.05;;;1.23;;
42616;SDS011;28250;52.320;0.360;2023-09-19T07:01:57;6.95;;;1.20;;
42616;SDS011;28250;52.320;0.360;2023-09-19T07:04:24;9.05;;;1.80;;
42616;SDS011;28250;52.320;0.360;2023-09-19T07:06:50;8.43;;;1.17;;
42616;SDS011;28250;52.320;0.360;2023-09-19T07:09:17;7.88;;;1.23;;
42616;SDS011;28250;52.320;0.360;2023-09-19T07:11:45;8.45;;;0.93;;
42616;SDS011;28250;52.320;0.360;2023-09-19T07:14:13;12.13;;;1.35;;
42616;SDS011;28250;52.320;0.360;2023-09-19T07:16:39;6.88;;;1.05;;
42616;SDS011;28250;52.320;0.360;2023-09-19T07:19:08;5.50;;;1.10;;
42616;SDS011;28250;52.320;0.360;2023-09-19T07:21:33;8.77;;;1.60;;
42616;SDS011;28250;52.320;0.360;2023-09-19T07:24:01;6.50;;;1.25;;
42616;SDS011;28250;52.320;0.360;2023-09-19T07:26:28;5.68;;;0.90;;
42616;SDS011;28250;52.320;0.360;2023-09-19T07:28:55;7.90;;;1.20;;
42616;SDS011;28250;52.320;0.360;2023-09-19T07:33:48;5.75;;;0.90;;
42616;SDS011;28250;52.320;0.360;2023-09-19T07:36:15;7.90;;;1.08;;
42616;SDS011;28250;52.320;0.360;2023-09-19T07:38:41;7.90;;;1.40;;
42616;SDS011;28250;52.320;0.360;2023-09-19T07:41:08;7.05;;;1.30;;
42616;SDS011;28250;52.320;0.360;2023-09-19T07:43:35;4.32;;;1.35;;
42616;SDS011;28250;52.320;0.360;2023-09-19T07:46:07;7.93;;;1.30;;
42616;SDS011;28250;52.320;0.360;2023-09-19T07:48:37;8.85;;;1.35;;
42616;SDS011;28250;52.320;0.360;2023-09-19T07:51:04;6.07;;;1.15;;
42616;SDS011;28250;52.320;0.360;2023-09-19T07:53:34;7.68;;;1.15;;
42616;SDS011;28250;52.320;0.360;2023-09-19T07:58:31;6.68;;;1.30;;
42616;SDS011;28250;52.320;0.360;2023-09-19T08:01:02;9.45;;;1.63;;
42616;SDS011;28250;52.320;0.360;2023-09-19T08:03:30;6.43;;;1.10;;
42616;SDS011;28250;52.320;0.360;2023-09-19T08:05:56;4.50;;;1.05;;
42616;SDS011;28250;52.320;0.360;2023-09-19T08:08:26;6.43;;;2.42;;
42616;SDS011;28250;52.320;0.360;2023-09-19T08:10:56;9.77;;;1.45;;
42616;SDS011;28250;52.320;0.360;2023-09-19T08:13:23;4.97;;;1.50;;
42616;SDS011;28250;52.320;0.360;2023-09-19T08:15:50;6.32;;;1.75;;
42616;SDS011;28250;52.320;0.360;2023-09-19T08:18:18;7.88;;;1.60;;
42616;SDS011;28250;52.320;0.360;2023-09-19T08:20:50;6.13;;;1.85;;
42616;SDS011;28250;52.320;0.360;2023-09-19T08:23:18;7.95;;;1.20;;
42616;SDS011;28250;52.320;0.360;2023-09-19T08:25:47;5.80;;;1.40;;
42616;SDS011;28250;52.320;0.360;2023-09-19T08:28:13;4.90;;;1.40;;
42616;SDS011;28250;52.320;0.360;2023-09-19T08:30:45;6.72;;;1.30;;
42616;SDS011;28250;52.320;0.360;2023-09-19T08:33:11;7.35;;;1.70;;
42616;SDS011;28250;52.320;0.360;2023-09-19T08:35:40;7.88;;;1.92;;
42616;SDS011;28250;52.320;0.360;2023-09-19T08:38:09;3.28;;;1.10;;
42616;SDS011;28250;52.320;0.360;2023-09-19T08:40:39;10.23;;;1.95;;
42616;SDS011;28250;52.320;0.360;2023-09-19T08:43:07;6.18;;;1.65;;
42616;SDS011;28250;52.320;0.360;2023-09-19T08:45:33;9.90;;;1.80;;
42616;SDS011;28250;52.320;0.360;2023-09-19T08:50:50;7.70;;;2.00;;
42616;SDS011;28250;52.320;0.360;2023-09-19T08:53:27;6.75;;;1.67;;
42616;SDS011;28250;52.320;0.360;2023-09-19T08:56:08;5.65;;;1.63;;
42616;SDS011;28250;52.320;0.360;2023-09-19T08:58:42;8.20;;;1.92;;
42616;SDS011;28250;52.320;0.360;2023-09-19T09:01:15;7.43;;;2.05;;
42616;SDS011;28250;52.320;0.360;2023-09-19T09:03:42;5.40;;;1.80;;
42616;SDS011;28250;52.320;0.360;2023-09-19T09:06:13;8.40;;;2.30;;
42616;SDS011;28250;52.320;0.360;2023-09-19T09:08:42;6.80;;;2.03;;
42616;SDS011;28250;52.320;0.360;2023-09-19T09:11:10;8.25;;;2.00;;
42616;SDS011;28250;52.320;0.360;2023-09-19T09:13:37;7.53;;;1.90;;
42616;SDS011;28250;52.320;0.360;2023-09-19T09:16:07;10.52;;;2.67;;
42616;SDS011;28250;52.320;0.360;2023-09-19T09:18:34;11.82;;;3.22;;
42616;SDS011;28250;52.320;0.360;2023-09-19T09:21:01;7.93;;;2.47;;
42616;SDS011;28250;52.320;0.360;2023-09-19T09:23:27;6.28;;;2.00;;
42616;SDS011;28250;52.320;0.360;2023-09-19T09:25:55;10.77;;;2.35;;
42616;SDS011;28250;52.320;0.360;2023-09-19T09:28:23;9.13;;;2.40;;
42616;SDS011;28250;52.320;0.360;2023-09-19T09:30:57;11.23;;;2.63;;
42616;SDS011;28250;52.320;0.360;2023-09-19T09:33:23;10.38;;;2.65;;
42616;SDS011;28250;52.320;0.360;2023-09-19T09:35:51;6.05;;;1.60;;
42616;SDS011;28250;52.320;0.360;2023-09-19T09:38:24;7.07;;;2.10;;
42616;SDS011;28250;52.320;0.360;2023-09-19T09:41:03;11.65;;;2.20;;
42616;SDS011;28250;52.320;0.360;2023-09-19T09:43:38;9.10;;;2.08;;
42616;SDS011;28250;52.320;0.360;2023-09-19T09:46:09;9.77;;;2.25;;
42616;SDS011;28250;52.320;0.360;2023-09-19T09:48:47;9.88;;;3.05;;
42616;SDS011;28250;52.320;0.360;2023-09-19T09:51:43;10.27;;;2.47;;
42616;SDS011;28250;52.320;0.360;2023-09-19T09:54:23;8.07;;;2.20;;
42616;SDS011;28250;52.320;0.360;2023-09-19T09:57:00;6.03;;;2.13;;
42616;SDS011;28250;52.320;0.360;2023-09-19T10:02:41;9.20;;;2.53;;
42616;SDS011;28250;52.320;0.360;2023-09-19T10:05:14;7.68;;;2.08;;
42616;SDS011;28250;52.320;0.360;2023-09-19T10:07:52;11.70;;;2.20;;
42616;SDS011;28250;52.320;0.360;2023-09-19T10:10:31;7.38;;;2.03;;
42616;SDS011;28250;52.320;0.360;2023-09-19T10:13:09;10.05;;;2.33;;
42616;SDS011;28250;52.320;0.360;2023-09-19T10:15:39;7.30;;;2.08;;
42616;SDS011;28250;52.320;0.360;2023-09-19T10:18:11;8.40;;;2.40;;
42616;SDS011;28250;52.320;0.360;2023-09-19T10:20:46;7.75;;;2.05;;
42616;SDS011;28250;52.320;0.360;2023-09-19T10:23:15;4.78;;;1.70;;
42616;SDS011;28250;52.320;0.360;2023-09-19T10:25:49;4.93;;;1.92;;
42616;SDS011;28250;52.320;0.360;2023-09-19T10:28:17;11.82;;;1.90;;
42616;SDS011;28250;52.320;0.360;2023-09-19T10:30:48;6.45;;;2.05;;
42616;SDS011;28250;52.320;0.360;2023-09-19T10:33:17;9.68;;;2.67;;
42616;SDS011;28250;52.320;0.360;2023-09-19T10:35:51;6.55;;;1.70;;
42616;SDS011;28250;52.320;0.360;2023-09-19T10:38:18;5.40;;;2.05;;
42616;SDS011;28250;52.320;0.360;2023-09-19T10:40:53;6.50;;;2.47;;
42616;SDS011;28250;52.320;0.360;2023-09-19T10:43:25;10.93;;;1.90;;
42616;SDS011;28250;52.320;0.360;2023-09-19T10:45:57;7.30;;;2.08;;
42616;SDS011;28250;52.320;0.360;2023-09-19T10:48:31;9.05;;;1.90;;
42616;SDS011;28250;52.320;0.360;2023-09-19T10:53:57;5.72;;;2.20;;
42616;SDS011;28250;52.320;0.360;2023-09-19T11:01:41;9.43;;;1.77;;
42616;SDS011;28250;52.320;0.360;2023-09-19T11:04:21;7.15;;;1.55;;
42616;SDS011;28250;52.320;0.360;2023-09-19T11:14:56;4.22;;;1.45;;
42616;SDS011;28250;52.320;0.360;2023-09-19T11:17:30;5.72;;;1.55;;
42616;SDS011;28250;52.320;0.360;2023-09-19T11:30:33;4.60;;;1.40;;
42616;SDS011;28250;52.320;0.360;2023-09-19T11:36:15;5.95;;;1.35;;
42616;SDS011;28250;52.320;0.360;2023-09-19T11:49:17;3.40;;;1.08;;
42616;SDS011;28250;52.320;0.360;2023-09-19T11:52:06;6.25;;;1.40;;
42616;SDS011;28250;52.320;0.360;2023-09-19T11:54:34;7.93;;;1.65;;
42616;SDS011;28250;52.320;0.360;2023-09-19T11:57:05;5.97;;;1.40;;
42616;SDS011;28250;52.320;0.360;2023-09-19T11:59:35;5.50;;;1.60;;
42616;SDS011;28250;52.320;0.360;2023-09-19T12:02:05;5.78;;;1.50;;
42616;SDS011;28250;52.320;0.360;2023-09-19T12:04:40;6.88;;;1.65;;
42616;SDS011;28250;52.320;0.360;2023-09-19T12:07:16;6.50;;;1.40;;
42616;SDS011;28250;52.320;0.360;2023-09-19T12:09:47;6.55;;;1.45;;
42616;SDS011;28250;52.320;0.360;2023-09-19T12:12:20;6.63;;;1.00;;
42616;SDS011;28250;52.320;0.360;2023-09-19T12:14:49;8.32;;;1.63;;
42616;SDS011;28250;52.320;0.360;2023-09-19T12:17:18;6.75;;;2.00;;
42616;SDS011;28250;52.320;0.360;2023-09-19T12:19:53;4.22;;;1.30;;
42616;SDS011;28250;52.320;0.360;2023-09-19T12:22:21;8.63;;;1.77;;
42616;SDS011;28250;52.320;0.360;2023-09-19T12:24:47;9.77;;;1.58;;
42616;SDS011;28250;52.320;0.360;2023-09-19T12:27:16;4.43;;;1.38;;
42616;SDS011;28250;52.320;0.360;2023-09-19T12:29:46;5.82;;;1.42;;
42616;SDS011;28250;52.320;0.360;2023-09-19T12:32:36;2.88;;;1.27;;
42616;SDS011;28250;52.320;0.360;2023-09-19T12:35:06;9.20;;;2.00;;
42616;SDS011;28250;52.320;0.360;2023-09-19T12:37:45;6.93;;;1.52;;
42616;SDS011;28250;52.320;0.360;2023-09-19T12:40:18;7.80;;;1.88;;
42616;SDS011;28250;52.320;0.360;2023-09-19T12:42:54;3.83;;;1.25;;
42616;SDS011;28250;52.320;0.360;2023-09-19T12:45:23;8.10;;;2.38;;
42616;SDS011;28250;52.320;0.360;2023-09-19T12:48:32;9.10;;;1.90;;
42616;SDS011;28250;52.320;0.360;2023-09-19T12:53:34;3.47;;;1.10;;
42616;SDS011;28250;52.320;0.360;2023-09-19T12:56:13;10.10;;;1.83;;
42616;SDS011;28250;52.320;0.360;2023-09-19T13:01:22;11.30;;;1.70;;
42616;SDS011;28250;52.320;0.360;2023-09-19T13:06:51;5.90;;;1.60;;
42616;SDS011;28250;52.320;0.360;2023-09-19T13:09:22;6.35;;;1.50;;
42616;SDS011;28250;52.320;0.360;2023-09-19T13:11:59;6.68;;;1.48;;
42616;SDS011;28250;52.320;0.360;2023-09-19T13:14:28;5.60;;;1.30;;
42616;SDS011;28250;52.320;0.360;2023-09-19T13:17:08;2.50;;;1.20;;
42616;SDS011;28250;52.320;0.360;2023-09-19T13:19:49;3.97;;;1.17;;
42616;SDS011;28250;52.320;0.360;2023-09-19T13:25:26;5.10;;;1.25;;
42616;SDS011;28250;52.320;0.360;2023-09-19T13:27:55;22.33;;;1.80;;
42616;SDS011;28250;52.320;0.360;2023-09-19T13:30:23;4.40;;;1.13;;
42616;SDS011;28250;52.320;0.360;2023-09-19T13:32:52;4.28;;;1.42;;
42616;SDS011;28250;52.320;0.360;2023-09-19T13:35:31;4.10;;;1.00;;
42616;SDS011;28250;52.320;0.360;2023-09-19T13:37:58;5.38;;;1.08;;
42616;SDS011;28250;52.320;0.360;2023-09-19T13:40:24;3.45;;;1.02;;
42616;SDS011;28250;52.320;0.360;2023-09-19T13:42:56;3.53;;;1.15;;
42616;SDS011;28250;52.320;0.360;2023-09-19T13:45:22;7.15;;;1.00;;
42616;SDS011;28250;52.320;0.360;2023-09-19T13:47:50;2.67;;;1.23;;
42616;SDS011;28250;52.320;0.360;2023-09-19T13:50:16;2.88;;;1.35;;
42616;SDS011;28250;52.320;0.360;2023-09-19T13:52:49;4.65;;;1.33;;
42616;SDS011;28250;52.320;0.360;2023-09-19T13:55:20;5.22;;;1.30;;
42616;SDS011;28250;52.320;0.360;2023-09-19T13:57:49;4.10;;;0.97;;
42616;SDS011;28250;52.320;0.360;2023-09-19T14:00:18;5.75;;;1.00;;
42616;SDS011;28250;52.320;0.360;2023-09-19T14:02:44;3.10;;;0.75;;
42616;SDS011;28250;52.320;0.360;2023-09-19T14:05:11;3.30;;;0.98;;
42616;SDS011;28250;52.320;0.360;2023-09-19T14:07:43;4.75;;;1.02;;
42616;SDS011;28250;52.320;0.360;2023-09-19T14:10:09;2.65;;;0.80;;
42616;SDS011;28250;52.320;0.360;2023-09-19T14:12:37;4.97;;;1.10;;
42616;SDS011;28250;52.320;0.360;2023-09-19T14:15:06;4.22;;;1.25;;
42616;SDS011;28250;52.320;0.360;2023-09-19T14:17:33;2.95;;;1.10;;
42616;SDS011;28250;52.320;0.360;2023-09-19T14:19:59;2.35;;;0.90;;
42616;SDS011;28250;52.320;0.360;2023-09-19T14:22:26;5.40;;;1.15;;
42616;SDS011;28250;52.320;0.360;2023-09-19T14:24:52;4.13;;;1.10;;
42616;SDS011;28250;52.320;0.360;2023-09-19T14:27:18;2.50;;;0.90;;
42616;SDS011;28250;52.320;0.360;2023-09-19T14:29:44;2.43;;;1.13;;
42616;SDS011;28250;52.320;0.360;2023-09-19T14:32:10;1.85;;;0.82;;
42616;SDS011;28250;52.320;0.360;2023-09-19T14:34:37;4.93;;;1.13;;
42616;SDS011;28250;52.320;0.360;2023-09-19T14:37:10;3.83;;;0.95;;
42616;SDS011;28250;52.320;0.360;2023-09-19T14:39:36;2.92;;;1.00;;
42616;SDS011;28250;52.320;0.360;2023-09-19T14:42:05;5.25;;;1.00;;
42616;SDS011;28250;52.320;0.360;2023-09-19T14:44:32;3.28;;;1.10;;
42616;SDS011;28250;52.320;0.360;2023-09-19T14:46:58;4.10;;;0.80;;
42616;SDS011;28250;52.320;0.360;2023-09-19T14:49:25;2.38;;;1.02;;
42616;SDS011;28250;52.320;0.360;2023-09-19T14:51:51;3.80;;;1.05;;
42616;SDS011;28250;52.320;0.360;2023-09-19T14:54:17;2.60;;;0.88;;
42616;SDS011;28250;52.320;0.360;2023-09-19T14:56:44;1.92;;;0.75;;
42616;SDS011;28250;52.320;0.360;2023-09-19T14:59:10;3.43;;;0.90;;
42616;SDS011;28250;52.320;0.360;2023-09-19T15:01:36;2.90;;;0.80;;
42616;SDS011;28250;52.320;0.360;2023-09-19T15:04:03;2.45;;;0.80;;
42616;SDS011;28250;52.320;0.360;2023-09-19T15:06:29;3.38;;;0.77;;
42616;SDS011;28250;52.320;0.360;2023-09-19T15:08:56;3.55;;;0.95;;
42616;SDS011;28250;52.320;0.360;2023-09-19T15:11:23;3.55;;;0.85;;
42616;SDS011;28250;52.320;0.360;2023-09-19T15:13:51;2.05;;;0.85;;
42616;SDS011;28250;52.320;0.360;2023-09-19T15:16:21;2.30;;;0.70;;
42616;SDS011;28250;52.320;0.360;2023-09-19T15:18:47;2.13;;;0.55;;
42616;SDS011;28250;52.320;0.360;2023-09-19T15:21:14;3.25;;;1.15;;
42616;SDS011;28250;52.320;0.360;2023-09-19T15:23:41;1.98;;;0.65;;
42616;SDS011;28250;52.320;0.360;2023-09-19T15:26:09;1.27;;;0.68;;
42616;SDS011;28250;52.320;0.360;2023-09-19T15:28:37;2.15;;;0.88;;
42616;SDS011;28250;52.320;0.360;2023-09-19T15:31:08;1.80;;;0.63;;
42616;SDS011;28250;52.320;0.360;2023-09-19T15:33:37;3.03;;;0.70;;
42616;SDS011;28250;52.320;0.360;2023-09-19T15:36:04;2.67;;;0.70;;
42616;SDS011;28250;52.320;0.360;2023-09-19T15:41:35;2.47;;;0.60;;
42616;SDS011;28250;52.320;0.360;2023-09-19T15:44:15;1.17;;;0.60;;
42616;SDS011;28250;52.320;0.360;2023-09-19T15:46:44;2.58;;;1.00;;
42616;SDS011;28250;52.320;0.360;2023-09-19T15:49:11;3.30;;;1.02;;
42616;SDS011;28250;52.320;0.360;2023-09-19T15:51:38;1.83;;;0.70;;
42616;SDS011;28250;52.320;0.360;2023-09-19T15:54:15;2.42;;;0.70;;
42616;SDS011;28250;52.320;0.360;2023-09-19T15:56:43;4.22;;;1.13;;
42616;SDS011;28250;52.320;0.360;2023-09-19T15:59:11;3.67;;;0.90;;
42616;SDS011;28250;52.320;0.360;2023-09-19T16:01:43;2.28;;;0.90;;
42616;SDS011;28250;52.320;0.360;2023-09-19T16:04:10;2.33;;;0.80;;
42616;SDS011;28250;52.320;0.360;2023-09-19T16:06:37;3.47;;;1.05;;
42616;SDS011;28250;52.320;0.360;2023-09-19T16:09:04;5.10;;;0.90;;
42616;SDS011;28250;52.320;0.360;2023-09-19T16:11:34;3.15;;;0.82;;
42616;SDS011;28250;52.320;0.360;2023-09-19T16:14:02;5.65;;;0.73;;
42616;SDS011;28250;52.320;0.360;2023-09-19T16:16:30;3.10;;;0.70;;
42616;SDS011;28250;52.320;0.360;2023-09-19T16:18:58;2.65;;;0.90;;
42616;SDS011;28250;52.320;0.360;2023-09-19T16:21:30;2.88;;;1.10;;
42616;SDS011;28250;52.320;0.360;2023-09-19T16:23:58;2.00;;;0.80;;